createdAt,value
2022-08-05T00:00:31.953Z,31.43
2022-08-05T00:02:33.702Z,31.33
2022-08-05T00:04:37.657Z,31.32
2022-08-05T00:06:41.895Z,31.14
2022-08-05T00:08:44.587Z,31.09
2022-08-05T00:10:49.120Z,30.98
2022-08-05T00:12:56.424Z,30.86
2022-08-05T00:14:58.618Z,30.77
2022-08-05T00:17:02.059Z,30.81
2022-08-05T00:19:04.822Z,30.52
2022-08-05T00:21:09.134Z,30.52
2022-08-05T00:23:12.928Z,30.47
2022-08-05T00:25:14.798Z,30.37
2022-08-05T00:27:18.243Z,30.40
2022-08-05T00:29:22.702Z,30.30
2022-08-05T00:31:53.590Z,30.29
2022-08-05T00:34:55.988Z,30.36
2022-08-05T00:36:16.028Z,30.29
2022-08-05T00:38:34.007Z,30.17
2022-08-05T00:40:47.001Z,30.28
2022-08-05T00:42:56.142Z,30.30
2022-08-05T00:44:57.883Z,30.37
2022-08-05T00:47:01.925Z,30.35
2022-08-05T00:49:06.000Z,30.42
2022-08-05T00:51:50.824Z,30.40
2022-08-05T00:53:59.895Z,30.47
2022-08-05T00:55:54.060Z,30.52
2022-08-05T00:57:59.084Z,30.56
2022-08-05T01:00:00.976Z,30.53
2022-08-05T01:02:03.061Z,30.57
2022-08-05T01:04:13.649Z,30.56
2022-08-05T01:06:17.377Z,30.55
2022-08-05T01:08:39.925Z,30.58
2022-08-05T01:10:51.711Z,30.71
2022-08-05T01:13:12.877Z,30.70
2022-08-05T01:15:35.616Z,30.62
2022-08-05T01:17:44.028Z,30.51
2022-08-05T01:20:02.368Z,30.34
2022-08-05T01:22:24.089Z,30.26
2022-08-05T01:24:46.487Z,30.31
2022-08-05T01:26:59.690Z,30.41
2022-08-05T01:29:05.565Z,30.42
2022-08-05T01:31:10.560Z,30.48
2022-08-05T01:33:15.922Z,30.55
2022-08-05T01:35:50.988Z,30.53
2022-08-05T01:37:54.597Z,30.54
2022-08-05T01:39:59.187Z,30.58
2022-08-05T01:42:03.104Z,30.63
2022-08-05T01:44:09.814Z,30.63
2022-08-05T01:46:16.694Z,30.65
2022-08-05T01:48:36.665Z,30.68
2022-08-05T01:50:40.794Z,30.75
2022-08-05T01:52:56.190Z,30.81
2022-08-05T01:55:04.309Z,30.87
2022-08-05T01:58:13.738Z,30.90
2022-08-05T01:59:33.902Z,30.95
2022-08-05T02:01:40.008Z,30.88
2022-08-05T02:03:46.403Z,30.86
2022-08-05T02:05:49.091Z,30.89
2022-08-05T02:08:01.724Z,30.95
2022-08-05T02:10:05.616Z,30.99
2022-08-05T02:12:16.846Z,31.03
2022-08-05T02:14:27.516Z,31.07
2022-08-05T02:16:36.669Z,31.06
2022-08-05T02:18:42.631Z,31.02
2022-08-05T02:20:49.601Z,31.06
2022-08-05T02:22:58.128Z,31.13
2022-08-05T02:25:05.110Z,31.12
2022-08-05T02:27:10.570Z,31.12
2022-08-05T02:29:21.716Z,31.12
2022-08-05T02:31:34.550Z,31.10
2022-08-05T02:33:40.680Z,31.13
2022-08-05T02:35:50.983Z,31.15
2022-08-05T02:38:00.293Z,31.17
2022-08-05T02:40:06.827Z,31.19
2022-08-05T02:42:11.838Z,31.17
2022-08-05T02:44:30.241Z,31.13
2022-08-05T02:46:33.675Z,31.11
2022-08-05T02:48:37.519Z,31.08
2022-08-05T02:50:43.621Z,31.08
2022-08-05T02:52:46.693Z,31.05
2022-08-05T02:54:51.104Z,31.04
2022-08-05T02:56:54.637Z,31.02
2022-08-05T02:58:57.660Z,31.03
2022-08-05T03:01:02.505Z,31.01
2022-08-05T03:03:10.407Z,31.02
2022-08-05T03:05:13.709Z,30.99
2022-08-05T03:07:21.431Z,30.97
2022-08-05T03:09:38.449Z,30.91
2022-08-05T03:11:54.424Z,30.89
2022-08-05T03:14:03.306Z,30.86
2022-08-05T03:16:06.271Z,30.86
2022-08-05T03:18:12.584Z,30.87
2022-08-05T03:20:18.920Z,30.88
2022-08-05T03:22:32.011Z,30.86
2022-08-05T03:24:34.314Z,30.84
2022-08-05T03:26:37.217Z,30.81
2022-08-05T03:28:38.841Z,30.71
2022-08-05T03:30:41.090Z,30.55
2022-08-05T03:32:44.194Z,30.36
2022-08-05T03:34:50.763Z,30.16
2022-08-05T03:36:53.183Z,30.02
2022-08-05T03:38:54.808Z,30.17
2022-08-05T03:40:57.749Z,30.28
2022-08-05T03:43:01.483Z,30.37
2022-08-05T03:45:23.238Z,30.44
2022-08-05T03:47:25.610Z,30.49
2022-08-05T03:49:52.150Z,30.40
2022-08-05T03:52:36.628Z,30.44
2022-08-05T03:55:52.517Z,30.49
2022-08-05T03:56:56.201Z,30.52
2022-08-05T03:59:21.355Z,30.48
2022-08-05T04:01:32.305Z,30.45
2022-08-05T04:03:38.085Z,30.48
2022-08-05T04:05:40.640Z,30.54
2022-08-05T04:07:51.480Z,30.54
2022-08-05T04:10:01.623Z,30.51
2022-08-05T04:12:05.881Z,30.53
2022-08-05T04:14:29.936Z,30.54
2022-08-05T04:16:32.984Z,30.54
2022-08-05T04:18:34.843Z,30.53
2022-08-05T04:20:36.527Z,30.53
2022-08-05T04:22:38.149Z,30.53
2022-08-05T04:24:53.005Z,30.53
2022-08-05T04:26:54.740Z,30.56
2022-08-05T04:28:59.946Z,30.55
2022-08-05T04:31:01.627Z,30.54
2022-08-05T04:33:09.909Z,30.53
2022-08-05T04:35:19.463Z,30.52
2022-08-05T04:37:22.869Z,30.39
2022-08-05T04:39:44.293Z,30.31
2022-08-05T04:41:55.417Z,30.25
2022-08-05T04:43:57.086Z,30.30
2022-08-05T04:45:58.832Z,30.20
2022-08-05T04:48:07.475Z,30.20
2022-08-05T04:50:37.490Z,30.24
2022-08-05T04:52:39.680Z,30.26
2022-08-05T04:54:42.108Z,30.31
2022-08-05T04:56:45.081Z,30.31
2022-08-05T04:58:46.652Z,30.29
2022-08-05T05:00:50.640Z,30.30
2022-08-05T05:02:52.630Z,30.34
2022-08-05T05:05:02.237Z,30.35
2022-08-05T05:07:04.966Z,30.39
2022-08-05T05:09:17.228Z,30.39
2022-08-05T05:11:19.435Z,30.35
2022-08-05T05:13:23.983Z,30.33
2022-08-05T05:15:57.364Z,30.24
2022-08-05T05:17:55.922Z,30.19
2022-08-05T05:19:58.807Z,30.16
2022-08-05T05:22:06.265Z,30.13
2022-08-05T05:24:23.209Z,30.03
2022-08-05T05:26:46.472Z,29.99
2022-08-05T05:28:53.032Z,30.02
2022-08-05T05:30:55.116Z,30.01
2022-08-05T05:32:57.330Z,29.99
2022-08-05T05:35:02.677Z,30.00
2022-08-05T05:37:04.973Z,30.00
2022-08-05T05:39:09.878Z,30.03
2022-08-05T05:41:13.175Z,30.01
2022-08-05T05:43:27.875Z,29.95
2022-08-05T05:45:48.262Z,29.95
2022-08-05T05:48:05.229Z,29.94
2022-08-05T05:50:10.172Z,29.94
2022-08-05T05:52:28.386Z,29.96
2022-08-05T05:54:49.916Z,30.01
2022-08-05T05:56:52.767Z,30.07
2022-08-05T05:58:54.630Z,30.04
2022-08-05T06:01:12.051Z,30.12
2022-08-05T06:03:40.589Z,30.15
2022-08-05T06:05:35.685Z,30.19
2022-08-05T06:07:41.797Z,30.21
2022-08-05T06:09:59.849Z,30.21
2022-08-05T06:12:02.791Z,30.19
2022-08-05T06:14:04.591Z,30.21
2022-08-05T06:16:31.778Z,30.16
2022-08-05T06:18:31.359Z,30.17
2022-08-05T06:20:33.371Z,30.05
2022-08-05T06:22:37.302Z,29.91
2022-08-05T06:24:48.317Z,29.80
2022-08-05T06:26:51.439Z,29.68
2022-08-05T06:28:53.583Z,29.57
2022-08-05T06:30:55.570Z,29.53
2022-08-05T06:32:59.051Z,29.52
2022-08-05T06:35:05.769Z,29.59
2022-08-05T06:37:08.223Z,29.66
2022-08-05T06:39:10.037Z,29.69
2022-08-05T06:41:12.400Z,29.73
2022-08-05T06:43:51.437Z,29.85
2022-08-05T06:46:02.929Z,29.93
2022-08-05T06:48:44.247Z,29.96
2022-08-05T06:50:21.418Z,30.06
2022-08-05T06:52:37.067Z,30.11
2022-08-05T06:54:39.949Z,30.16
2022-08-05T06:56:41.593Z,30.13
2022-08-05T06:58:57.201Z,30.16
2022-08-05T07:01:00.289Z,30.16
2022-08-05T07:03:03.375Z,30.13
2022-08-05T07:05:15.436Z,30.20
2022-08-05T07:07:24.024Z,30.28
2022-08-05T07:09:43.239Z,30.40
2022-08-05T07:11:49.404Z,30.52
2022-08-05T07:13:59.406Z,30.69
2022-08-05T07:16:04.594Z,30.80
2022-08-05T07:18:10.184Z,30.94
2022-08-05T07:22:35.246Z,31.14
2022-08-05T07:24:44.019Z,31.22
2022-08-05T07:26:54.438Z,31.30
2022-08-05T07:28:56.271Z,31.37
2022-08-05T07:31:01.401Z,31.26
2022-08-05T07:33:09.255Z,31.24
2022-08-05T07:36:03.642Z,31.23
2022-08-05T07:37:37.485Z,31.09
2022-08-05T07:40:04.680Z,31.07
2022-08-05T07:42:14.448Z,31.03
2022-08-05T07:44:19.231Z,31.00
2022-08-05T07:46:25.457Z,30.96
2022-08-05T07:49:00.589Z,30.97
2022-08-05T07:50:50.517Z,30.97
2022-08-05T07:52:52.215Z,30.96
2022-08-05T07:54:54.744Z,30.95
2022-08-05T07:57:13.531Z,30.95
2022-08-05T07:59:17.893Z,30.95
2022-08-05T08:01:25.003Z,30.85
2022-08-05T08:03:44.053Z,30.76
2022-08-05T08:05:49.570Z,30.60
2022-08-05T08:07:59.745Z,30.60
2022-08-05T08:10:02.292Z,30.51
2022-08-05T08:12:12.490Z,30.30
2022-08-05T08:14:21.835Z,30.44
2022-08-05T08:16:35.215Z,30.46
2022-08-05T08:18:50.213Z,30.38
2022-08-05T08:21:01.866Z,30.32
2022-08-05T08:23:06.298Z,30.27
2022-08-05T08:25:16.436Z,30.25
2022-08-05T08:27:19.608Z,30.27
2022-08-05T08:30:05.571Z,30.26
2022-08-05T08:31:43.329Z,30.23
2022-08-05T08:33:45.838Z,30.29
2022-08-05T08:35:52.396Z,30.34
2022-08-05T08:37:56.498Z,30.35
2022-08-05T08:39:59.943Z,30.42
2022-08-05T08:42:10.729Z,30.48
2022-08-05T08:45:16.986Z,30.46
2022-08-05T08:46:52.106Z,30.41
2022-08-05T08:49:07.751Z,30.47
2022-08-05T08:52:02.001Z,30.55
2022-08-05T08:53:44.492Z,30.61
2022-08-05T08:56:04.014Z,30.66
2022-08-05T08:58:08.799Z,30.69
2022-08-05T09:00:11.496Z,30.71
2022-08-05T09:02:20.048Z,30.67
2022-08-05T09:04:22.019Z,30.69
2022-08-05T09:06:33.013Z,30.69
2022-08-05T09:08:40.148Z,30.68
2022-08-05T09:10:42.575Z,30.74
2022-08-05T09:12:50.987Z,30.79
2022-08-05T09:15:04.053Z,30.79
2022-08-05T09:17:42.969Z,30.81
2022-08-05T09:19:36.397Z,30.85
2022-08-05T09:22:30.915Z,30.90
2022-08-05T09:24:05.491Z,30.96
2022-08-05T09:26:10.117Z,31.00
2022-08-05T09:28:16.435Z,31.07
2022-08-05T09:30:23.733Z,31.01
2022-08-05T09:32:45.910Z,31.09
2022-08-05T09:34:55.327Z,31.12
2022-08-05T09:36:59.218Z,31.17
2022-08-05T09:39:17.991Z,31.22
2022-08-05T09:41:23.636Z,31.21
2022-08-05T09:43:41.207Z,31.23
2022-08-05T09:46:06.617Z,31.22
2022-08-05T09:48:21.668Z,31.28
2022-08-05T09:50:38.711Z,31.27
2022-08-05T09:52:45.477Z,31.31
2022-08-05T09:54:54.622Z,31.34
2022-08-05T09:57:01.758Z,31.37
2022-08-05T09:59:06.884Z,31.39
2022-08-05T10:01:15.380Z,31.41
2022-08-05T10:03:24.922Z,31.38
2022-08-05T10:05:46.609Z,31.34
2022-08-05T10:08:34.770Z,31.37
2022-08-05T10:10:15.813Z,31.36
2022-08-05T10:12:33.499Z,31.41
2022-08-05T10:14:37.089Z,31.43
2022-08-05T10:16:52.377Z,31.39
2022-08-05T10:18:55.352Z,31.44
2022-08-05T10:21:06.117Z,31.50
2022-08-05T10:23:34.353Z,31.52
2022-08-05T10:25:34.895Z,31.55
2022-08-05T10:28:13.381Z,31.60
2022-08-05T10:30:41.313Z,31.62
2022-08-05T10:32:52.808Z,31.54
2022-08-05T10:34:45.891Z,31.63
2022-08-05T10:36:49.373Z,31.74
2022-08-05T10:38:57.303Z,31.79
2022-08-05T10:41:13.813Z,31.69
2022-08-05T10:43:31.049Z,31.68
2022-08-05T10:45:39.985Z,31.70
2022-08-05T10:47:56.139Z,31.50
2022-08-05T10:50:32.364Z,31.41
2022-08-05T10:52:42.958Z,31.51
2022-08-05T10:55:05.384Z,31.54
2022-08-05T10:57:07.580Z,31.47
2022-08-05T11:00:02.988Z,31.52
2022-08-05T11:01:55.362Z,31.54
2022-08-05T11:04:07.989Z,31.63
2022-08-05T11:06:16.032Z,31.61
2022-08-05T11:08:36.854Z,31.66
2022-08-05T11:10:50.370Z,31.52
2022-08-05T11:13:01.471Z,31.64
2022-08-05T11:15:19.670Z,31.64
2022-08-05T11:18:00.214Z,31.79
2022-08-05T11:20:11.182Z,31.85
2022-08-05T11:22:43.254Z,31.88
2022-08-05T11:26:04.086Z,31.72
2022-08-05T11:27:51.679Z,31.80
2022-08-05T11:30:02.204Z,31.85
2022-08-05T11:32:24.389Z,31.79
2022-08-05T11:34:39.484Z,31.80
2022-08-05T11:36:52.568Z,31.87
2022-08-05T11:38:55.313Z,32.10
2022-08-05T11:41:13.824Z,32.28
2022-08-05T11:44:04.787Z,32.18
2022-08-05T11:46:27.191Z,31.95
2022-08-05T11:48:11.619Z,31.84
2022-08-05T11:50:15.145Z,31.81
2022-08-05T11:52:23.416Z,31.81
2022-08-05T11:54:34.363Z,31.80
2022-08-05T11:56:43.895Z,31.89
2022-08-05T11:58:52.939Z,31.92
2022-08-05T12:01:01.712Z,32.07
2022-08-05T12:03:29.194Z,32.12
2022-08-05T12:05:39.811Z,32.15
2022-08-05T12:08:08.179Z,32.15
2022-08-05T12:10:09.223Z,32.20
2022-08-05T12:12:11.510Z,32.33
2022-08-05T12:14:13.699Z,32.31
2022-08-05T12:16:18.369Z,32.36
2022-08-05T12:18:32.629Z,32.58
2022-08-05T12:20:36.120Z,32.74
2022-08-05T12:22:37.735Z,32.67
2022-08-05T12:24:43.601Z,32.71
2022-08-05T12:26:52.904Z,32.88
2022-08-05T12:28:54.488Z,33.06
2022-08-05T12:30:56.724Z,32.96
2022-08-05T12:32:58.469Z,32.87
2022-08-05T12:35:09.509Z,32.80
2022-08-05T12:37:29.734Z,32.83
2022-08-05T12:39:37.263Z,32.99
2022-08-05T12:41:43.536Z,32.95
2022-08-05T12:43:51.390Z,33.06
2022-08-05T12:45:54.203Z,33.13
2022-08-05T12:48:01.789Z,33.17
2022-08-05T12:50:17.663Z,33.17
2022-08-05T12:52:28.321Z,33.13
2022-08-05T12:54:32.116Z,33.09
2022-08-05T12:56:35.308Z,33.04
2022-08-05T12:58:51.433Z,32.97
2022-08-05T13:02:01.734Z,33.01
2022-08-05T13:03:17.343Z,33.05
2022-08-05T13:05:19.264Z,33.16
2022-08-05T13:07:54.705Z,33.21
2022-08-05T13:09:54.491Z,33.31
2022-08-05T13:12:03.737Z,33.44
2022-08-05T13:14:20.235Z,33.49
2022-08-05T13:16:27.824Z,33.55
2022-08-05T13:18:37.589Z,33.73
2022-08-05T13:20:40.218Z,33.85
2022-08-05T13:22:47.999Z,34.02
2022-08-05T13:24:57.489Z,34.25
2022-08-05T13:26:59.856Z,34.39
2022-08-05T13:29:05.134Z,34.31
2022-08-05T13:31:13.983Z,34.18
2022-08-05T13:34:23.559Z,34.07
2022-08-05T13:35:47.005Z,34.27
2022-08-05T13:37:55.587Z,34.56
2022-08-05T13:40:16.699Z,34.66
2022-08-05T13:42:20.214Z,34.97
2022-08-05T13:44:21.827Z,35.21
2022-08-05T13:46:43.785Z,35.51
2022-08-05T13:48:58.233Z,35.36
2022-08-05T13:51:05.781Z,35.14
2022-08-05T13:53:15.618Z,34.95
2022-08-05T13:55:40.902Z,34.85
2022-08-05T13:57:51.203Z,35.07
2022-08-05T13:59:57.082Z,35.40
2022-08-05T14:02:02.598Z,35.66
2022-08-05T14:04:04.848Z,36.01
2022-08-05T14:06:26.185Z,36.24
2022-08-05T14:08:32.638Z,36.55
2022-08-05T14:10:34.609Z,36.68
2022-08-05T14:12:36.475Z,36.63
2022-08-05T14:14:38.106Z,36.44
2022-08-05T14:16:39.855Z,36.22
2022-08-05T14:18:44.126Z,35.94
2022-08-05T14:20:47.362Z,35.71
2022-08-05T14:22:49.873Z,35.46
2022-08-05T14:24:53.288Z,35.24
2022-08-05T14:27:15.590Z,35.09
2022-08-05T14:29:17.819Z,35.12
2022-08-05T14:32:03.158Z,34.95
2022-08-05T14:34:00.132Z,34.80
2022-08-05T14:36:03.181Z,34.56
2022-08-05T14:38:04.780Z,34.40
2022-08-05T14:40:09.096Z,34.26
2022-08-05T14:42:29.399Z,34.15
2022-08-05T14:44:31.173Z,34.14
2022-08-05T14:46:35.041Z,34.08
2022-08-05T14:48:37.210Z,34.00
2022-08-05T14:50:40.869Z,33.91
2022-08-05T14:52:52.526Z,33.87
2022-08-05T14:54:55.984Z,33.78
2022-08-05T14:56:59.554Z,33.71
2022-08-05T14:59:01.459Z,33.60
2022-08-05T15:01:05.148Z,33.58
2022-08-05T15:03:17.894Z,33.55
2022-08-05T15:05:19.997Z,33.52
2022-08-05T15:08:06.139Z,33.50
2022-08-05T15:09:52.750Z,33.36
2022-08-05T15:11:56.064Z,33.29
2022-08-05T15:14:00.654Z,33.20
2022-08-05T15:16:02.678Z,33.14
2022-08-05T15:18:05.607Z,33.07
2022-08-05T15:20:17.119Z,33.02
2022-08-05T15:22:21.063Z,32.96
2022-08-05T15:24:23.109Z,32.91
2022-08-05T15:26:32.155Z,32.89
2022-08-05T15:28:34.214Z,32.85
2022-08-05T15:30:37.314Z,32.77
2022-08-05T15:32:39.934Z,32.73
2022-08-05T15:34:42.207Z,32.64
2022-08-05T15:36:43.899Z,32.56
2022-08-05T15:38:46.408Z,32.57
2022-08-05T15:41:21.019Z,32.56
2022-08-05T15:43:19.770Z,32.55
2022-08-05T15:45:23.122Z,32.49
2022-08-05T15:47:43.146Z,32.43
2022-08-05T15:49:53.398Z,32.37
2022-08-05T15:52:13.812Z,32.31
2022-08-05T15:54:18.700Z,32.03
2022-08-05T15:56:21.170Z,31.39
2022-08-05T15:58:23.123Z,31.17
2022-08-05T16:00:26.146Z,30.93
2022-08-05T16:02:46.333Z,30.62
2022-08-05T16:04:48.915Z,30.65
2022-08-05T16:06:50.501Z,30.61
2022-08-05T16:08:55.217Z,30.61
2022-08-05T16:10:57.486Z,30.41
2022-08-05T16:12:59.041Z,30.10
2022-08-05T16:15:01.012Z,29.95
2022-08-05T16:17:02.880Z,29.80
2022-08-05T16:19:07.465Z,30.23
2022-08-05T16:21:11.603Z,30.42
2022-08-05T16:23:15.325Z,30.28
2022-08-05T16:25:17.052Z,30.31
2022-08-05T16:27:18.929Z,30.32
2022-08-05T16:29:21.385Z,30.43
2022-08-05T16:31:23.306Z,30.36
2022-08-05T16:33:25.012Z,30.44
2022-08-05T16:35:33.642Z,30.43
2022-08-05T16:38:02.025Z,30.53
2022-08-05T16:40:05.689Z,30.58
2022-08-05T16:42:14.042Z,30.61
2022-08-05T16:44:18.506Z,30.62
2022-08-05T16:46:24.291Z,30.64
2022-08-05T16:48:33.405Z,30.63
2022-08-05T16:50:37.385Z,30.57
2022-08-05T16:52:39.194Z,30.63
2022-08-05T16:54:47.963Z,30.72
2022-08-05T16:56:52.450Z,30.70
2022-08-05T16:58:54.125Z,30.65
2022-08-05T17:00:55.846Z,30.70
2022-08-05T17:02:57.779Z,30.74
2022-08-05T17:04:59.507Z,30.74
2022-08-05T17:07:03.564Z,30.67
2022-08-05T17:09:13.960Z,30.63
2022-08-05T17:11:17.279Z,30.63
2022-08-05T17:13:21.219Z,30.64
2022-08-05T17:15:23.160Z,30.58
2022-08-05T17:17:42.811Z,30.56
2022-08-05T17:19:45.540Z,30.49
2022-08-05T17:21:51.481Z,30.40
2022-08-05T17:24:05.632Z,30.46
2022-08-05T17:26:09.947Z,30.55
2022-08-05T17:28:15.363Z,30.61
2022-08-05T17:30:18.897Z,30.57
2022-08-05T17:32:30.156Z,30.52
2022-08-05T17:34:34.918Z,30.57
2022-08-05T17:36:40.609Z,30.54
2022-08-05T17:38:42.928Z,30.51
2022-08-05T17:40:46.393Z,30.58
2022-08-05T17:42:51.060Z,30.51
2022-08-05T17:44:53.779Z,30.55
2022-08-05T17:46:55.370Z,30.57
2022-08-05T17:48:57.203Z,30.52
2022-08-05T17:50:59.654Z,30.52
2022-08-05T17:53:05.180Z,30.47
2022-08-05T17:55:08.031Z,30.42
2022-08-05T17:57:12.328Z,30.44
2022-08-05T17:59:14.112Z,30.47
2022-08-05T18:01:22.746Z,30.47
2022-08-05T18:03:58.468Z,30.48
2022-08-05T18:05:50.037Z,30.47
2022-08-05T18:07:56.879Z,30.47
2022-08-05T18:10:02.129Z,30.43
2022-08-05T18:12:13.392Z,30.33
2022-08-05T18:14:23.934Z,30.30
2022-08-05T18:16:25.745Z,30.32
2022-08-05T18:18:27.399Z,30.28
2022-08-05T18:20:31.614Z,30.30
2022-08-05T18:22:36.394Z,30.25
2022-08-05T18:24:58.693Z,30.29
2022-08-05T18:27:00.458Z,30.32
2022-08-05T18:29:03.503Z,30.33
2022-08-05T18:31:05.476Z,30.32
2022-08-05T18:33:07.124Z,30.28
2022-08-05T18:35:09.017Z,30.22
2022-08-05T18:37:33.542Z,30.25
2022-08-05T18:40:31.468Z,30.23
2022-08-05T18:42:02.218Z,30.23
2022-08-05T18:44:09.424Z,30.20
2022-08-05T18:46:11.180Z,30.13
2022-08-05T18:48:31.314Z,30.11
2022-08-05T18:50:42.155Z,30.10
2022-08-05T18:52:51.138Z,30.12
2022-08-05T18:54:54.448Z,30.11
2022-08-05T18:56:56.149Z,30.09
2022-08-05T18:59:00.800Z,30.10
2022-08-05T19:01:04.506Z,30.04
2022-08-05T19:03:07.109Z,29.98
2022-08-05T19:06:05.895Z,29.93
2022-08-05T19:07:45.112Z,29.91
2022-08-05T19:09:47.360Z,29.98
2022-08-05T19:11:59.256Z,29.96
2022-08-05T19:14:20.053Z,29.91
2022-08-05T19:16:29.358Z,29.90
2022-08-05T19:18:34.811Z,29.94
2022-08-05T19:20:36.966Z,29.96
2022-08-05T19:22:43.028Z,29.92
2022-08-05T19:24:56.015Z,29.94
2022-08-05T19:26:57.969Z,29.96
2022-08-05T19:29:00.034Z,29.92
2022-08-05T19:31:05.880Z,29.95
2022-08-05T19:33:12.695Z,29.98
2022-08-05T19:35:18.772Z,29.97
2022-08-05T19:37:29.812Z,29.88
2022-08-05T19:39:51.014Z,29.90
2022-08-05T19:42:06.162Z,29.88
2022-08-05T19:44:13.769Z,29.83
2022-08-05T19:46:16.532Z,29.84
2022-08-05T19:48:30.400Z,29.86
2022-08-05T19:50:32.013Z,29.86
2022-08-05T19:52:33.690Z,29.80
2022-08-05T19:54:35.641Z,29.78
2022-08-05T19:56:40.084Z,29.79
2022-08-05T19:58:53.770Z,29.78
2022-08-05T20:00:55.857Z,29.79
2022-08-05T20:02:57.816Z,29.68
2022-08-05T20:05:04.651Z,29.68
2022-08-05T20:07:10.449Z,29.69
2022-08-05T20:09:15.200Z,29.68
2022-08-05T20:11:19.608Z,29.66
2022-08-05T20:13:30.372Z,29.60
2022-08-05T20:15:51.672Z,29.61
2022-08-05T20:18:01.341Z,29.54
2022-08-05T20:20:09.483Z,29.55
2022-08-05T20:22:12.782Z,29.54
2022-08-05T20:24:14.412Z,29.56
2022-08-05T20:26:18.459Z,29.60
2022-08-05T20:28:20.682Z,29.49
2022-08-05T20:30:24.168Z,29.52
2022-08-05T20:32:28.308Z,29.53
2022-08-05T20:34:30.075Z,29.51
2022-08-05T20:36:34.061Z,29.49
2022-08-05T20:38:35.779Z,29.45
2022-08-05T20:40:37.688Z,29.42
2022-08-05T20:42:44.989Z,29.38
2022-08-05T20:44:46.707Z,29.18
2022-08-05T20:46:48.781Z,29.01
2022-08-05T20:48:51.038Z,29.02
2022-08-05T20:50:53.399Z,29.08
2022-08-05T20:52:56.354Z,29.05
2022-08-05T20:55:55.311Z,28.98
2022-08-05T20:57:24.644Z,29.05
2022-08-05T21:00:10.471Z,29.06
2022-08-05T21:02:03.265Z,29.00
2022-08-05T21:04:05.948Z,29.01
2022-08-05T21:06:28.722Z,28.97
2022-08-05T21:08:41.930Z,29.01
2022-08-05T21:10:49.057Z,28.89
2022-08-05T21:12:58.356Z,28.85
2022-08-05T21:15:11.839Z,28.75
2022-08-05T21:17:15.045Z,28.64
2022-08-05T21:19:17.167Z,28.53
2022-08-05T21:21:24.455Z,28.45
2022-08-05T21:23:26.213Z,28.44
2022-08-05T21:25:33.973Z,28.41
2022-08-05T21:27:38.959Z,28.43
2022-08-05T21:29:40.961Z,28.40
2022-08-05T21:31:42.669Z,28.36
2022-08-05T21:33:47.889Z,28.34
2022-08-05T21:35:56.008Z,28.35
2022-08-05T21:38:00.978Z,28.45
2022-08-05T21:40:05.840Z,28.38
2022-08-05T21:42:41.481Z,28.41
2022-08-05T21:44:31.809Z,28.47
2022-08-05T21:46:34.423Z,28.51
2022-08-05T21:48:36.414Z,28.47
2022-08-05T21:50:38.138Z,28.49
2022-08-05T21:52:39.978Z,28.48
2022-08-05T21:54:51.119Z,28.56
2022-08-05T21:57:29.206Z,28.61
2022-08-05T21:59:24.275Z,28.57
2022-08-05T22:01:27.979Z,28.55
2022-08-05T22:03:48.612Z,28.44
2022-08-05T22:05:54.550Z,28.46
2022-08-05T22:08:02.289Z,28.44
2022-08-05T22:10:04.818Z,28.33
2022-08-05T22:12:10.609Z,28.40
2022-08-05T22:14:32.559Z,28.40
2022-08-05T22:16:51.291Z,28.45
2022-08-05T22:18:58.678Z,28.45
2022-08-05T22:21:00.458Z,28.40
2022-08-05T22:23:16.588Z,28.41
2022-08-05T22:25:27.480Z,28.41
2022-08-05T22:28:08.113Z,28.38
2022-08-05T22:29:54.446Z,28.35
2022-08-05T22:32:02.778Z,28.39
2022-08-05T22:34:05.078Z,28.33
2022-08-05T22:36:07.929Z,28.30
2022-08-05T22:38:11.689Z,28.30
2022-08-05T22:40:16.632Z,28.26
2022-08-05T22:42:26.187Z,28.23
2022-08-05T22:44:29.294Z,28.09
2022-08-05T22:46:30.965Z,28.06
2022-08-05T22:48:35.451Z,27.96
2022-08-05T22:50:37.051Z,27.94
2022-08-05T22:52:48.859Z,27.93
2022-08-05T22:54:50.407Z,27.89
2022-08-05T22:56:52.033Z,27.81
2022-08-05T22:58:55.316Z,27.77
2022-08-05T23:00:57.164Z,27.74
2022-08-05T23:02:58.969Z,27.73
2022-08-05T23:05:05.293Z,27.62
2022-08-05T23:07:07.011Z,27.56
2022-08-05T23:09:27.795Z,27.43
2022-08-05T23:11:30.311Z,27.31
2022-08-05T23:13:32.455Z,27.32
2022-08-05T23:15:36.454Z,27.29
2022-08-05T23:18:00.409Z,27.28
2022-08-05T23:20:06.572Z,27.22
2022-08-05T23:22:19.262Z,27.14
2022-08-05T23:24:31.780Z,27.14
2022-08-05T23:26:33.341Z,27.07
2022-08-05T23:28:35.015Z,27.10
2022-08-05T23:30:39.972Z,27.09
2022-08-05T23:32:45.469Z,27.05
2022-08-05T23:34:47.180Z,27.05
2022-08-05T23:36:50.325Z,27.10
2022-08-05T23:38:54.557Z,27.09
2022-08-05T23:40:56.274Z,27.06
2022-08-05T23:42:57.873Z,27.02
2022-08-05T23:45:03.924Z,26.79
2022-08-05T23:47:16.864Z,26.72
2022-08-05T23:49:23.673Z,26.71
2022-08-05T23:51:27.343Z,26.63
2022-08-05T23:53:46.383Z,26.60
2022-08-05T23:55:48.725Z,26.56
2022-08-05T23:57:52.822Z,26.59
